createdAt,value
2018-08-25T00:01:00.407Z,40.00
2018-08-25T00:03:31.062Z,39.90
2018-08-25T00:06:01.774Z,39.90
2018-08-25T00:08:32.444Z,40.00
2018-08-25T00:11:03.265Z,40.00
2018-08-25T00:13:34.271Z,40.10
2018-08-25T00:16:05.182Z,39.90
2018-08-25T00:18:35.836Z,40.00
2018-08-25T00:21:06.522Z,40.00
2018-08-25T00:23:37.297Z,40.00
2018-08-25T00:26:07.957Z,40.00
2018-08-25T00:28:38.507Z,40.10
2018-08-25T00:31:14.330Z,40.10
2018-08-25T00:33:45.108Z,40.10
2018-08-25T00:36:15.832Z,40.20
2018-08-25T00:38:46.889Z,40.80
2018-08-25T00:41:17.575Z,40.30
2018-08-25T00:43:48.142Z,40.20
2018-08-25T00:46:18.657Z,40.10
2018-08-25T00:48:50.090Z,40.20
2018-08-25T00:51:20.720Z,40.40
2018-08-25T00:53:52.003Z,40.30
2018-08-25T00:56:23.349Z,40.40
2018-08-25T00:58:53.882Z,40.30
2018-08-25T01:01:25.200Z,40.40
2018-08-25T01:03:55.923Z,40.40
2018-08-25T01:06:26.685Z,40.40
2018-08-25T01:08:57.213Z,40.40
2018-08-25T01:11:27.835Z,40.50
2018-08-25T01:13:58.848Z,40.60
2018-08-25T01:16:29.565Z,40.60
2018-08-25T01:19:00.318Z,40.70
2018-08-25T01:21:31.183Z,40.80
2018-08-25T01:24:01.989Z,40.80
2018-08-25T01:26:33.214Z,40.80
2018-08-25T01:29:04.107Z,40.80
2018-08-25T01:31:41.486Z,40.90
2018-08-25T01:34:12.385Z,40.90
2018-08-25T01:36:43.112Z,40.80
2018-08-25T01:39:13.680Z,40.90
2018-08-25T01:41:44.208Z,41.40
2018-08-25T01:44:14.689Z,40.90
2018-08-25T01:46:45.246Z,40.90
2018-08-25T01:49:15.746Z,41.00
2018-08-25T01:51:46.451Z,41.10
2018-08-25T01:54:17.066Z,41.00
2018-08-25T01:56:47.856Z,41.10
2018-08-25T01:59:18.452Z,41.20
2018-08-25T02:01:48.999Z,41.30
2018-08-25T02:04:19.706Z,41.30
2018-08-25T02:06:50.968Z,41.80
2018-08-25T02:09:21.652Z,41.40
2018-08-25T02:11:52.561Z,41.40
2018-08-25T02:14:23.124Z,41.50
2018-08-25T02:16:53.746Z,41.50
2018-08-25T02:19:24.277Z,41.50
2018-08-25T02:21:54.916Z,41.50
2018-08-25T02:24:25.607Z,41.50
2018-08-25T02:26:56.151Z,41.60
2018-08-25T02:29:26.876Z,41.80
2018-08-25T02:31:58.032Z,42.10
2018-08-25T02:34:28.650Z,42.20
2018-08-25T02:36:59.205Z,42.60
2018-08-25T02:39:29.750Z,42.70
2018-08-25T02:42:00.506Z,42.80
2018-08-25T02:44:31.775Z,43.00
2018-08-25T02:47:03.313Z,43.10
2018-08-25T02:49:33.984Z,43.40
2018-08-25T02:52:04.742Z,43.60
2018-08-25T02:54:35.393Z,43.80
2018-08-25T02:57:06.447Z,44.10
2018-08-25T02:59:37.041Z,44.60
2018-08-25T03:02:07.998Z,44.90
2018-08-25T03:04:38.732Z,45.50
2018-08-25T03:07:09.301Z,45.70
2018-08-25T03:09:39.933Z,46.00
2018-08-25T03:12:10.615Z,46.10
2018-08-25T03:14:40.935Z,46.30
2018-08-25T03:17:11.825Z,47.50
2018-08-25T03:19:42.425Z,46.90
2018-08-25T03:22:13.424Z,47.10
2018-08-25T03:24:44.847Z,46.80
2018-08-25T03:27:15.390Z,47.20
2018-08-25T03:29:45.858Z,47.70
2018-08-25T03:32:16.432Z,47.60
2018-08-25T03:34:46.981Z,48.00
2018-08-25T03:37:17.583Z,48.30
2018-08-25T03:39:48.326Z,48.30
2018-08-25T03:42:18.938Z,48.90
2018-08-25T03:44:49.585Z,49.00
2018-08-25T03:47:23.226Z,49.00
2018-08-25T03:49:53.766Z,49.20
2018-08-25T03:52:24.334Z,49.40
2018-08-25T03:54:55.443Z,49.80
2018-08-25T03:57:26.056Z,50.00
2018-08-25T03:59:56.725Z,50.10
2018-08-25T04:02:27.258Z,50.40
2018-08-25T04:04:58.318Z,50.50
2018-08-25T04:07:28.973Z,50.90
2018-08-25T04:09:59.706Z,50.70
2018-08-25T04:12:30.318Z,51.00
2018-08-25T04:15:00.958Z,51.70
2018-08-25T04:17:32.061Z,51.40
2018-08-25T04:20:02.449Z,51.60
2018-08-25T04:22:32.984Z,51.70
2018-08-25T04:25:04.180Z,51.90
2018-08-25T04:27:34.822Z,52.30
2018-08-25T04:30:06.101Z,52.20
2018-08-25T04:32:36.675Z,52.60
2018-08-25T04:35:07.501Z,52.90
2018-08-25T04:37:37.969Z,52.60
2018-08-25T04:40:08.941Z,52.50
2018-08-25T04:42:39.436Z,52.40
2018-08-25T04:45:09.995Z,52.50
2018-08-25T04:47:40.584Z,52.70
2018-08-25T04:50:11.228Z,52.70
2018-08-25T04:52:42.310Z,52.80
2018-08-25T04:55:12.676Z,52.90
2018-08-25T04:57:43.378Z,53.10
2018-08-25T05:00:14.116Z,53.00
2018-08-25T05:02:44.935Z,53.40
2018-08-25T05:05:15.925Z,53.10
2018-08-25T05:07:46.534Z,53.40
2018-08-25T05:10:17.200Z,53.30
2018-08-25T05:12:47.824Z,53.70
2018-08-25T05:15:18.418Z,53.80
2018-08-25T05:17:49.017Z,53.50
2018-08-25T05:20:19.889Z,53.40
2018-08-25T05:22:50.373Z,53.50
2018-08-25T05:25:21.000Z,53.40
2018-08-25T05:27:51.704Z,53.60
2018-08-25T05:30:22.293Z,53.40
2018-08-25T05:32:53.085Z,53.90
2018-08-25T05:35:23.645Z,53.50
2018-08-25T05:37:54.171Z,53.60
2018-08-25T05:40:24.673Z,53.50
2018-08-25T05:42:55.225Z,53.40
2018-08-25T05:45:25.865Z,53.60
2018-08-25T05:47:56.446Z,53.50
2018-08-25T05:50:27.080Z,53.40
2018-08-25T05:52:57.693Z,53.60
2018-08-25T05:55:28.473Z,53.60
2018-08-25T05:57:59.035Z,53.70
2018-08-25T06:00:29.555Z,53.80
2018-08-25T06:03:00.038Z,54.20
2018-08-25T06:05:30.821Z,54.30
2018-08-25T06:08:01.561Z,54.30
2018-08-25T06:10:31.982Z,54.30
2018-08-25T06:13:02.557Z,54.30
2018-08-25T06:15:33.087Z,54.40
2018-08-25T06:18:03.697Z,54.30
2018-08-25T06:20:34.534Z,54.40
2018-08-25T06:23:05.374Z,54.60
2018-08-25T06:25:36.299Z,54.40
2018-08-25T06:28:07.903Z,54.40
2018-08-25T06:30:38.530Z,54.20
2018-08-25T06:33:09.097Z,54.30
2018-08-25T06:35:39.714Z,54.10
2018-08-25T06:38:10.776Z,53.90
2018-08-25T06:40:41.451Z,53.90
2018-08-25T06:43:12.374Z,53.90
2018-08-25T06:45:43.073Z,53.90
2018-08-25T06:48:13.640Z,54.00
2018-08-25T06:50:44.198Z,53.80
2018-08-25T06:53:14.755Z,53.60
2018-08-25T06:55:45.556Z,53.90
2018-08-25T06:58:16.111Z,54.10
2018-08-25T07:00:46.683Z,54.20
2018-08-25T07:03:17.234Z,54.20
2018-08-25T07:05:47.804Z,54.40
2018-08-25T07:08:18.436Z,54.50
2018-08-25T07:10:49.199Z,54.40
2018-08-25T07:13:20.134Z,54.50
2018-08-25T07:15:50.797Z,55.30
2018-08-25T07:18:21.691Z,54.50
2018-08-25T07:20:52.509Z,54.50
2018-08-25T07:23:22.985Z,54.10
2018-08-25T07:25:53.568Z,54.00
2018-08-25T07:28:24.218Z,54.10
2018-08-25T07:30:54.816Z,54.50
2018-08-25T07:33:25.469Z,54.30
2018-08-25T07:35:55.980Z,54.10
2018-08-25T07:38:26.698Z,53.80
2018-08-25T07:40:57.769Z,54.00
2018-08-25T07:43:28.568Z,53.80
2018-08-25T07:45:59.109Z,53.50
2018-08-25T07:48:29.729Z,53.50
2018-08-25T07:51:00.620Z,53.10
2018-08-25T07:53:31.411Z,53.00
2018-08-25T07:56:02.008Z,52.80
2018-08-25T07:58:32.767Z,52.70
2018-08-25T08:01:03.593Z,52.60
2018-08-25T08:03:34.098Z,52.40
2018-08-25T08:06:04.677Z,52.20
2018-08-25T08:08:35.263Z,51.80
2018-08-25T08:11:06.192Z,51.80
2018-08-25T08:13:36.824Z,52.40
2018-08-25T08:16:08.373Z,51.90
2018-08-25T08:18:39.046Z,51.90
2018-08-25T08:21:09.579Z,51.60
2018-08-25T08:23:40.237Z,51.80
2018-08-25T08:26:10.789Z,51.70
2018-08-25T08:28:41.325Z,51.40
2018-08-25T08:31:11.884Z,51.30
2018-08-25T08:33:42.615Z,51.40
2018-08-25T08:36:13.240Z,51.40
2018-08-25T08:38:43.854Z,51.10
2018-08-25T08:41:14.828Z,50.80
2018-08-25T08:43:45.739Z,50.80
2018-08-25T08:46:20.565Z,51.00
2018-08-25T08:48:51.258Z,50.80
2018-08-25T08:51:21.860Z,50.60
2018-08-25T08:53:52.402Z,50.50
2018-08-25T08:56:23.143Z,50.30
2018-08-25T08:58:53.706Z,50.30
2018-08-25T09:01:26.028Z,50.40
2018-08-25T09:03:57.119Z,50.90
2018-08-25T09:06:27.890Z,51.00
2018-08-25T09:08:59.023Z,50.60
2018-08-25T09:11:29.921Z,50.10
2018-08-25T09:14:00.578Z,50.30
2018-08-25T09:16:31.159Z,50.40
2018-08-25T09:19:02.026Z,50.30
2018-08-25T09:21:32.634Z,50.20
2018-08-25T09:24:03.985Z,50.00
2018-08-25T09:26:34.684Z,49.80
2018-08-25T09:29:05.841Z,49.50
2018-08-25T09:31:36.747Z,49.40
2018-08-25T09:34:07.487Z,49.50
2018-08-25T09:36:38.363Z,49.40
2018-08-25T09:39:11.507Z,49.10
2018-08-25T09:41:42.164Z,49.30
2018-08-25T09:44:13.228Z,48.80
2018-08-25T09:46:44.106Z,48.80
2018-08-25T09:49:14.786Z,48.80
2018-08-25T09:51:45.602Z,48.40
2018-08-25T09:54:16.473Z,48.20
2018-08-25T09:56:47.280Z,47.90
2018-08-25T09:59:17.872Z,48.30
2018-08-25T10:02:02.091Z,48.80
2018-08-25T10:04:32.745Z,49.10
2018-08-25T10:07:03.656Z,48.60
2018-08-25T10:09:34.266Z,48.10
2018-08-25T10:12:05.471Z,47.60
2018-08-25T10:14:36.431Z,47.10
2018-08-25T10:17:07.066Z,47.10
2018-08-25T10:19:37.679Z,47.40
2018-08-25T10:22:08.236Z,48.40
2018-08-25T10:24:38.923Z,49.50
2018-08-25T10:27:09.728Z,50.00
2018-08-25T10:29:40.418Z,50.30
2018-08-25T10:32:11.370Z,50.50
2018-08-25T10:34:42.058Z,49.60
2018-08-25T10:37:12.887Z,48.30
2018-08-25T10:39:43.528Z,47.00
2018-08-25T10:42:14.346Z,46.30
2018-08-25T10:44:45.115Z,45.50
2018-08-25T10:47:15.921Z,44.90
2018-08-25T10:49:46.562Z,44.50
2018-08-25T10:52:17.288Z,44.30
2018-08-25T10:54:48.036Z,44.40
2018-08-25T10:57:18.693Z,44.30
2018-08-25T10:59:49.046Z,44.20
2018-08-25T11:02:27.969Z,44.00
2018-08-25T11:04:58.789Z,43.90
2018-08-25T11:07:29.369Z,43.80
2018-08-25T11:10:00.059Z,44.20
2018-08-25T11:12:30.711Z,44.20
2018-08-25T11:15:01.528Z,44.30
2018-08-25T11:17:32.064Z,44.30
2018-08-25T11:20:02.763Z,45.70
2018-08-25T11:22:33.399Z,45.10
2018-08-25T11:25:04.497Z,45.60
2018-08-25T11:27:35.286Z,45.80
2018-08-25T11:30:06.032Z,45.50
2018-08-25T11:32:36.749Z,44.50
2018-08-25T11:35:08.234Z,44.90
2018-08-25T11:37:38.905Z,44.90
2018-08-25T11:40:09.906Z,45.40
2018-08-25T11:42:40.711Z,45.70
2018-08-25T11:45:11.435Z,44.80
2018-08-25T11:47:42.041Z,44.30
2018-08-25T11:50:13.025Z,44.00
2018-08-25T11:52:44.875Z,43.80
2018-08-25T11:55:15.934Z,43.70
2018-08-25T11:57:46.739Z,43.70
2018-08-25T12:00:17.517Z,44.80
2018-08-25T12:02:48.206Z,45.40
2018-08-25T12:05:19.024Z,44.60
2018-08-25T12:07:51.010Z,44.30
2018-08-25T12:10:22.086Z,44.80
2018-08-25T12:12:52.890Z,45.80
2018-08-25T12:15:24.109Z,46.10
2018-08-25T12:17:55.504Z,46.50
2018-08-25T12:20:26.848Z,45.80
2018-08-25T12:22:58.597Z,44.90
2018-08-25T12:25:29.906Z,44.10
2018-08-25T12:28:01.122Z,43.20
2018-08-25T12:30:32.362Z,42.60
2018-08-25T12:33:03.757Z,41.70
2018-08-25T12:35:34.852Z,39.80
2018-08-25T12:38:06.370Z,38.00
2018-08-25T12:40:37.702Z,37.10
2018-08-25T12:43:08.561Z,36.60
2018-08-25T12:45:39.470Z,36.60
2018-08-25T12:48:10.061Z,37.00
2018-08-25T12:50:40.848Z,37.80
2018-08-25T12:53:11.836Z,38.00
2018-08-25T12:55:47.950Z,39.70
2018-08-25T12:58:19.143Z,40.80
2018-08-25T13:00:50.368Z,40.70
2018-08-25T13:03:22.293Z,40.50
2018-08-25T13:05:53.634Z,40.90
2018-08-25T13:08:24.886Z,40.40
2018-08-25T13:10:56.147Z,39.50
2018-08-25T13:13:27.291Z,39.50
2018-08-25T13:15:58.988Z,38.20
2018-08-25T13:18:30.782Z,38.40
2018-08-25T13:21:02.339Z,37.40
2018-08-25T13:23:33.841Z,36.10
2018-08-25T13:26:05.038Z,35.10
2018-08-25T13:28:36.213Z,34.10
2018-08-25T13:31:07.990Z,33.80
2018-08-25T13:33:39.312Z,33.50
2018-08-25T13:36:10.736Z,33.40
2018-08-25T13:38:41.439Z,33.50
2018-08-25T13:41:11.841Z,33.70
2018-08-25T13:43:42.502Z,33.80
2018-08-25T13:46:13.232Z,34.00
2018-08-25T13:48:44.272Z,34.60
2018-08-25T13:51:14.889Z,34.70
2018-08-25T13:53:45.606Z,34.50
2018-08-25T13:56:16.503Z,34.60
2018-08-25T13:58:47.065Z,34.50
2018-08-25T14:01:17.799Z,34.30
2018-08-25T14:03:48.360Z,33.90
2018-08-25T14:06:19.087Z,33.90
2018-08-25T14:08:49.676Z,34.00
2018-08-25T14:11:20.901Z,34.10
2018-08-25T14:13:51.696Z,34.20
2018-08-25T14:16:23.721Z,34.40
2018-08-25T14:18:54.702Z,34.80
2018-08-25T14:21:25.523Z,34.80
2018-08-25T14:23:56.456Z,35.40
2018-08-25T14:26:27.127Z,34.80
2018-08-25T14:28:57.798Z,35.80
2018-08-25T14:31:28.512Z,35.80
2018-08-25T14:33:59.306Z,35.90
2018-08-25T14:36:30.052Z,36.00
2018-08-25T14:39:00.948Z,35.80
2018-08-25T14:41:32.052Z,35.60
2018-08-25T14:44:03.223Z,35.50
2018-08-25T14:46:34.530Z,35.50
2018-08-25T14:49:05.924Z,35.70
2018-08-25T14:51:36.979Z,35.90
2018-08-25T14:54:07.690Z,36.10
2018-08-25T14:56:38.373Z,36.10
2018-08-25T14:59:09.144Z,36.00
2018-08-25T15:01:39.848Z,35.90
2018-08-25T15:04:10.489Z,35.70
2018-08-25T15:06:41.116Z,35.70
2018-08-25T15:09:13.681Z,35.60
2018-08-25T15:11:45.664Z,35.10
2018-08-25T15:14:16.330Z,35.70
2018-08-25T15:16:47.135Z,35.70
2018-08-25T15:19:19.155Z,35.70
2018-08-25T15:21:49.853Z,36.40
2018-08-25T15:24:20.927Z,35.90
2018-08-25T15:26:51.658Z,36.00
2018-08-25T15:29:22.316Z,36.00
2018-08-25T15:31:53.091Z,36.10
2018-08-25T15:34:23.756Z,36.10
2018-08-25T15:36:54.462Z,36.30
2018-08-25T15:39:25.170Z,36.50
2018-08-25T15:41:56.176Z,36.90
2018-08-25T15:44:27.197Z,37.00
2018-08-25T15:46:58.126Z,37.00
2018-08-25T15:49:29.107Z,36.90
2018-08-25T15:52:00.248Z,36.90
2018-08-25T15:54:31.129Z,36.60
2018-08-25T15:57:01.873Z,36.60
2018-08-25T15:59:39.243Z,36.50
2018-08-25T16:02:09.803Z,36.50
2018-08-25T16:04:40.671Z,36.50
2018-08-25T16:07:11.148Z,36.70
2018-08-25T16:09:43.338Z,36.70
2018-08-25T16:12:14.072Z,36.80
2018-08-25T16:14:45.008Z,36.90
2018-08-25T16:17:15.683Z,37.00
2018-08-25T16:19:46.380Z,37.20
2018-08-25T16:22:17.163Z,37.30
2018-08-25T16:24:48.193Z,37.40
2018-08-25T16:27:19.007Z,37.20
2018-08-25T16:29:49.845Z,37.00
2018-08-25T16:32:20.453Z,36.90
2018-08-25T16:34:51.241Z,36.90
2018-08-25T16:37:21.834Z,37.20
2018-08-25T16:39:52.442Z,37.10
2018-08-25T16:42:23.070Z,37.10
2018-08-25T16:44:54.033Z,37.10
2018-08-25T16:47:24.658Z,36.90
2018-08-25T16:49:55.444Z,37.30
2018-08-25T16:52:26.078Z,37.30
2018-08-25T16:54:56.770Z,37.60
2018-08-25T16:57:27.593Z,37.90
2018-08-25T16:59:58.131Z,37.60
2018-08-25T17:02:29.025Z,37.70
2018-08-25T17:04:59.651Z,37.70
2018-08-25T17:07:30.363Z,37.70
2018-08-25T17:10:01.131Z,37.80
2018-08-25T17:12:31.848Z,38.00
2018-08-25T17:15:02.923Z,38.10
2018-08-25T17:17:33.596Z,38.30
2018-08-25T17:20:04.202Z,38.40
2018-08-25T17:22:34.821Z,38.60
2018-08-25T17:25:05.600Z,38.80
2018-08-25T17:27:36.616Z,38.90
2018-08-25T17:30:07.744Z,38.90
2018-08-25T17:32:38.760Z,38.70
2018-08-25T17:35:09.420Z,38.60
2018-08-25T17:37:39.954Z,38.60
2018-08-25T17:40:10.638Z,38.60
2018-08-25T17:42:41.363Z,38.70
2018-08-25T17:45:11.923Z,38.90
2018-08-25T17:47:42.885Z,39.90
2018-08-25T17:50:13.713Z,39.70
2018-08-25T17:52:44.308Z,39.80
2018-08-25T17:55:15.294Z,40.60
2018-08-25T17:57:46.075Z,40.80
2018-08-25T18:00:16.971Z,41.40
2018-08-25T18:02:47.666Z,41.30
2018-08-25T18:05:18.176Z,41.00
2018-08-25T18:07:48.834Z,40.80
2018-08-25T18:10:19.441Z,41.80
2018-08-25T18:12:50.181Z,40.90
2018-08-25T18:15:20.791Z,41.70
2018-08-25T18:17:51.396Z,41.60
2018-08-25T18:20:25.073Z,41.50
2018-08-25T18:22:55.927Z,41.40
2018-08-25T18:25:26.608Z,41.30
2018-08-25T18:27:57.408Z,41.40
2018-08-25T18:30:28.719Z,41.30
2018-08-25T18:32:59.631Z,41.50
2018-08-25T18:35:30.998Z,41.50
2018-08-25T18:38:01.878Z,42.20
2018-08-25T18:40:32.618Z,41.30
2018-08-25T18:43:03.529Z,41.10
2018-08-25T18:45:34.080Z,41.20
2018-08-25T18:48:05.206Z,41.50
2018-08-25T18:50:36.236Z,41.50
2018-08-25T18:53:07.147Z,41.70
2018-08-25T18:55:38.093Z,42.00
2018-08-25T18:58:08.989Z,41.80
2018-08-25T19:00:40.245Z,42.30
2018-08-25T19:03:11.685Z,42.10
2018-08-25T19:05:42.812Z,42.50
2018-08-25T19:08:13.618Z,42.90
2018-08-25T19:10:44.368Z,42.60
2018-08-25T19:13:15.113Z,42.60
2018-08-25T19:15:45.837Z,42.50
2018-08-25T19:18:16.652Z,43.00
2018-08-25T19:20:48.058Z,42.80
2018-08-25T19:23:19.112Z,43.30
2018-08-25T19:25:50.147Z,43.40
2018-08-25T19:28:23.869Z,44.20
2018-08-25T19:30:54.860Z,43.90
2018-08-25T19:33:25.828Z,43.60
2018-08-25T19:36:03.773Z,43.70
2018-08-25T19:38:34.791Z,44.10
2018-08-25T19:41:06.155Z,44.30
2018-08-25T19:43:37.289Z,44.30
2018-08-25T19:46:08.787Z,44.40
2018-08-25T19:48:39.978Z,44.70
2018-08-25T19:51:11.224Z,44.70
2018-08-25T19:53:42.237Z,44.70
2018-08-25T19:56:13.185Z,44.90
2018-08-25T19:58:44.357Z,45.10
2018-08-25T20:01:15.106Z,45.10
2018-08-25T20:03:45.894Z,45.20
2018-08-25T20:06:17.216Z,45.30
2018-08-25T20:08:48.322Z,45.20
2018-08-25T20:11:18.983Z,45.00
2018-08-25T20:13:50.422Z,45.30
2018-08-25T20:16:21.178Z,45.40
2018-08-25T20:18:52.309Z,45.30
2018-08-25T20:21:23.111Z,45.60
2018-08-25T20:23:53.821Z,45.70
2018-08-25T20:26:24.596Z,45.60
2018-08-25T20:28:56.039Z,45.70
2018-08-25T20:31:26.861Z,45.30
2018-08-25T20:33:58.069Z,45.50
2018-08-25T20:36:28.727Z,45.40
2018-08-25T20:38:59.673Z,45.60
2018-08-25T20:41:30.635Z,45.80
2018-08-25T20:44:01.442Z,45.60
2018-08-25T20:46:32.026Z,45.70
2018-08-25T20:49:04.641Z,45.70
2018-08-25T20:51:36.211Z,45.80
2018-08-25T20:54:06.738Z,46.20
2018-08-25T20:56:37.323Z,45.80
2018-08-25T20:59:08.085Z,45.70
2018-08-25T21:01:39.033Z,45.80
2018-08-25T21:04:11.582Z,46.00
2018-08-25T21:06:42.232Z,46.00
2018-08-25T21:09:13.112Z,46.10
2018-08-25T21:11:43.874Z,46.60
2018-08-25T21:14:14.571Z,46.30
2018-08-25T21:16:45.335Z,46.50
2018-08-25T21:19:16.143Z,46.60
2018-08-25T21:21:47.178Z,46.50
2018-08-25T21:24:18.042Z,46.50
2018-08-25T21:26:48.616Z,46.60
2018-08-25T21:29:19.483Z,46.50
2018-08-25T21:31:50.522Z,46.60
2018-08-25T21:34:21.955Z,46.60
2018-08-25T21:36:52.694Z,46.50
2018-08-25T21:39:23.295Z,46.60
2018-08-25T21:41:53.960Z,46.60
2018-08-25T21:44:24.904Z,46.70
2018-08-25T21:46:55.657Z,47.00
2018-08-25T21:49:26.537Z,46.80
2018-08-25T21:51:57.240Z,46.90
2018-08-25T21:54:27.871Z,46.80
2018-08-25T21:56:58.930Z,46.70
2018-08-25T21:59:29.466Z,46.80
2018-08-25T22:02:00.236Z,46.90
2018-08-25T22:04:31.080Z,46.90
2018-08-25T22:07:02.072Z,46.90
2018-08-25T22:09:32.760Z,47.10
2018-08-25T22:12:03.542Z,47.00
2018-08-25T22:14:34.326Z,47.10
2018-08-25T22:17:05.028Z,47.30
2018-08-25T22:19:35.675Z,47.40
2018-08-25T22:22:06.848Z,47.30
2018-08-25T22:24:37.551Z,47.30
2018-08-25T22:27:08.161Z,47.30
2018-08-25T22:29:38.753Z,47.40
2018-08-25T22:32:09.775Z,47.50
2018-08-25T22:34:40.468Z,47.50
2018-08-25T22:37:11.981Z,47.40
2018-08-25T22:39:42.921Z,47.50
2018-08-25T22:42:13.680Z,48.20
2018-08-25T22:44:44.248Z,47.50
2018-08-25T22:47:15.123Z,47.60
2018-08-25T22:49:45.933Z,47.70
2018-08-25T22:52:20.043Z,48.00
2018-08-25T22:54:53.816Z,47.90
2018-08-25T22:57:24.507Z,47.80
2018-08-25T22:59:55.603Z,48.10
2018-08-25T23:02:30.809Z,48.30
2018-08-25T23:05:04.262Z,48.30
2018-08-25T23:07:35.270Z,48.40
2018-08-25T23:10:07.910Z,48.40
2018-08-25T23:12:38.468Z,48.30
2018-08-25T23:15:09.081Z,47.80
2018-08-25T23:17:39.593Z,48.50
2018-08-25T23:20:11.110Z,49.30
2018-08-25T23:22:42.009Z,48.70
2018-08-25T23:25:12.754Z,48.60
2018-08-25T23:27:43.563Z,49.10
2018-08-25T23:30:14.160Z,48.90
2018-08-25T23:32:45.332Z,48.90
2018-08-25T23:35:15.837Z,48.50
2018-08-25T23:37:46.396Z,49.00
2018-08-25T23:40:17.005Z,49.00
2018-08-25T23:42:47.529Z,49.00
2018-08-25T23:45:18.502Z,49.10
2018-08-25T23:47:49.434Z,49.30
2018-08-25T23:50:20.017Z,49.40
2018-08-25T23:52:50.711Z,49.60
2018-08-25T23:55:21.647Z,49.70
2018-08-25T23:57:52.394Z,49.70
